createdAt,value
2019-01-30T00:01:47.172Z,-2.30
2019-01-30T00:04:16.958Z,-2.30
2019-01-30T00:06:46.614Z,-2.20
2019-01-30T00:09:16.310Z,-2.10
2019-01-30T00:11:45.982Z,-2.20
2019-01-30T00:14:15.663Z,-2.10
2019-01-30T00:16:45.415Z,-2.00
2019-01-30T00:19:15.180Z,-1.90
2019-01-30T00:21:44.862Z,-1.90
2019-01-30T00:24:15.520Z,-1.90
2019-01-30T00:26:45.191Z,-1.80
2019-01-30T00:29:14.947Z,-1.80
2019-01-30T00:31:44.829Z,-1.80
2019-01-30T00:34:14.443Z,-1.80
2019-01-30T00:36:44.138Z,-1.80
2019-01-30T00:39:14.040Z,-1.80
2019-01-30T00:41:44.988Z,-1.80
2019-01-30T00:44:14.568Z,-1.70
2019-01-30T00:46:44.315Z,-1.70
2019-01-30T00:49:13.997Z,-1.60
2019-01-30T00:51:43.824Z,-1.60
2019-01-30T00:54:13.485Z,-1.60
2019-01-30T00:56:43.187Z,-1.60
2019-01-30T00:59:12.930Z,-1.50
2019-01-30T01:01:42.688Z,-1.60
2019-01-30T01:04:12.364Z,-1.50
2019-01-30T01:06:42.143Z,-1.60
2019-01-30T01:09:12.113Z,-1.50
2019-01-30T01:11:41.810Z,-1.60
2019-01-30T01:14:11.504Z,-1.60
2019-01-30T01:16:42.192Z,-1.60
2019-01-30T01:19:11.812Z,-1.60
2019-01-30T01:21:41.562Z,-1.60
2019-01-30T01:24:11.654Z,-1.60
2019-01-30T01:26:41.359Z,-1.60
2019-01-30T01:29:10.966Z,-1.70
2019-01-30T01:31:40.581Z,-1.60
2019-01-30T01:34:10.409Z,-1.60
2019-01-30T01:36:40.030Z,-1.60
2019-01-30T01:39:09.782Z,-1.70
2019-01-30T01:41:39.592Z,-1.70
2019-01-30T01:44:09.402Z,-1.80
2019-01-30T01:46:40.991Z,-1.80
2019-01-30T01:49:10.658Z,-1.70
2019-01-30T01:51:40.770Z,-1.70
2019-01-30T01:54:10.440Z,-1.60
2019-01-30T01:56:40.228Z,-1.60
2019-01-30T01:59:09.894Z,-1.60
2019-01-30T02:01:39.662Z,-1.60
2019-01-30T02:04:09.397Z,-1.50
2019-01-30T02:06:39.093Z,-1.50
2019-01-30T02:09:09.279Z,-1.40
2019-01-30T02:11:38.887Z,-1.40
2019-01-30T02:14:08.739Z,-1.40
2019-01-30T02:16:38.708Z,-1.40
2019-01-30T02:19:08.379Z,-1.40
2019-01-30T02:21:38.140Z,-1.30
2019-01-30T02:24:07.821Z,-1.30
2019-01-30T02:26:37.593Z,-1.20
2019-01-30T02:29:07.209Z,-1.20
2019-01-30T02:31:37.027Z,-1.20
2019-01-30T02:34:08.263Z,-1.20
2019-01-30T02:36:39.692Z,-1.10
2019-01-30T02:39:09.291Z,-1.20
2019-01-30T02:41:38.934Z,-1.20
2019-01-30T02:44:08.730Z,-1.20
2019-01-30T02:46:38.425Z,-1.20
2019-01-30T02:49:08.029Z,-1.20
2019-01-30T02:51:37.728Z,-1.30
2019-01-30T02:54:07.486Z,-1.30
2019-01-30T02:56:37.252Z,-1.30
2019-01-30T02:59:07.028Z,-1.20
2019-01-30T03:01:38.610Z,-1.20
2019-01-30T03:04:09.177Z,-1.20
2019-01-30T03:06:38.865Z,-1.30
2019-01-30T03:09:08.603Z,-1.30
2019-01-30T03:11:38.307Z,-1.20
2019-01-30T03:14:08.003Z,-1.20
2019-01-30T03:16:38.616Z,-1.20
2019-01-30T03:19:08.298Z,-1.30
2019-01-30T03:21:38.096Z,-1.20
2019-01-30T03:24:07.762Z,-1.20
2019-01-30T03:26:38.506Z,-1.20
2019-01-30T03:29:08.109Z,-1.20
2019-01-30T03:31:37.928Z,-1.20
2019-01-30T03:34:07.575Z,-1.20
2019-01-30T03:36:37.324Z,-1.20
2019-01-30T03:39:07.955Z,-1.20
2019-01-30T03:41:38.678Z,-1.10
2019-01-30T03:44:08.410Z,-1.10
2019-01-30T03:46:38.158Z,-1.10
2019-01-30T03:49:07.921Z,-1.10
2019-01-30T03:51:37.633Z,-1.10
2019-01-30T03:54:07.240Z,-1.10
2019-01-30T03:56:36.984Z,-1.10
2019-01-30T03:59:06.714Z,-1.10
2019-01-30T04:01:36.488Z,-1.20
2019-01-30T04:04:06.074Z,-1.20
2019-01-30T04:06:35.825Z,-1.10
2019-01-30T04:09:06.985Z,-1.10
2019-01-30T04:11:36.636Z,-1.10
2019-01-30T04:14:07.423Z,-1.10
2019-01-30T04:16:37.093Z,-1.10
2019-01-30T04:19:06.800Z,-1.20
2019-01-30T04:21:36.482Z,-1.10
2019-01-30T04:24:06.332Z,-1.10
2019-01-30T04:26:37.003Z,-1.10
2019-01-30T04:29:06.665Z,-1.00
2019-01-30T04:31:38.277Z,-1.00
2019-01-30T04:34:07.751Z,-1.00
2019-01-30T04:36:37.430Z,-1.10
2019-01-30T04:39:07.608Z,-1.00
2019-01-30T04:41:37.305Z,-1.00
2019-01-30T04:44:07.040Z,-1.10
2019-01-30T04:46:36.705Z,-1.10
2019-01-30T04:49:06.433Z,-1.10
2019-01-30T04:51:37.106Z,-1.10
2019-01-30T04:54:07.090Z,-1.00
2019-01-30T04:56:36.902Z,-1.00
2019-01-30T04:59:06.565Z,-1.00
2019-01-30T05:01:36.324Z,-1.00
2019-01-30T05:04:05.926Z,-1.00
2019-01-30T05:06:35.786Z,-1.00
2019-01-30T05:09:07.913Z,-1.00
2019-01-30T05:11:37.523Z,-1.10
2019-01-30T05:14:07.305Z,-1.10
2019-01-30T05:16:37.006Z,-1.10
2019-01-30T05:19:06.840Z,-1.10
2019-01-30T05:21:36.509Z,-1.00
2019-01-30T05:24:06.290Z,-1.00
2019-01-30T05:26:35.897Z,-1.00
2019-01-30T05:29:05.591Z,-1.00
2019-01-30T05:31:35.296Z,-0.90
2019-01-30T05:34:05.129Z,-0.80
2019-01-30T05:36:34.724Z,-0.70
2019-01-30T05:39:07.762Z,-0.50
2019-01-30T05:41:37.684Z,-0.50
2019-01-30T05:44:07.556Z,-0.60
2019-01-30T05:46:37.417Z,-0.60
2019-01-30T05:49:07.150Z,-0.70
2019-01-30T05:51:36.882Z,-0.70
2019-01-30T05:54:07.623Z,-0.70
2019-01-30T05:56:37.303Z,-0.80
2019-01-30T05:59:07.001Z,-0.90
2019-01-30T06:01:36.660Z,-0.90
2019-01-30T06:04:06.415Z,-1.10
2019-01-30T06:06:36.089Z,-1.10
2019-01-30T06:09:07.440Z,-1.20
2019-01-30T06:11:37.059Z,-1.20
2019-01-30T06:14:06.806Z,-1.20
2019-01-30T06:16:36.479Z,-1.20
2019-01-30T06:19:06.736Z,-1.20
2019-01-30T06:21:36.410Z,-1.20
2019-01-30T06:24:06.175Z,-1.20
2019-01-30T06:26:35.939Z,-1.30
2019-01-30T06:29:05.795Z,-1.30
2019-01-30T06:31:35.423Z,-1.30
2019-01-30T06:34:05.255Z,-1.40
2019-01-30T06:36:35.062Z,-1.40
2019-01-30T06:39:06.887Z,-1.40
2019-01-30T06:41:36.560Z,-1.40
2019-01-30T06:44:06.312Z,-1.40
2019-01-30T06:46:36.231Z,-1.30
2019-01-30T06:49:06.026Z,-1.40
2019-01-30T06:51:36.763Z,-1.40
2019-01-30T06:54:06.597Z,-1.40
2019-01-30T06:56:36.472Z,-1.50
2019-01-30T06:59:06.352Z,-1.50
2019-01-30T07:01:36.186Z,-1.60
2019-01-30T07:04:05.934Z,-1.60
2019-01-30T07:06:35.667Z,-1.50
2019-01-30T07:09:08.644Z,-1.50
2019-01-30T07:11:38.399Z,-1.50
2019-01-30T07:14:08.225Z,-1.40
2019-01-30T07:16:37.897Z,-1.40
2019-01-30T07:19:07.709Z,-1.40
2019-01-30T07:21:37.408Z,-1.30
2019-01-30T07:24:07.285Z,-1.30
2019-01-30T07:26:37.145Z,-1.30
2019-01-30T07:29:06.780Z,-1.20
2019-01-30T07:31:36.633Z,-1.20
2019-01-30T07:34:06.321Z,-1.00
2019-01-30T07:36:36.002Z,-0.90
2019-01-30T07:39:08.210Z,-0.80
2019-01-30T07:41:37.889Z,-0.50
2019-01-30T07:44:07.643Z,-0.30
2019-01-30T07:46:37.407Z,-0.20
2019-01-30T07:49:07.223Z,0.00
2019-01-30T07:51:37.063Z,0.20
2019-01-30T07:54:06.814Z,0.50
2019-01-30T07:56:36.608Z,0.70
2019-01-30T07:59:06.348Z,0.80
2019-01-30T08:01:36.108Z,0.80
2019-01-30T08:04:06.182Z,0.90
2019-01-30T08:06:35.927Z,1.00
2019-01-30T08:09:08.114Z,1.00
2019-01-30T08:11:37.786Z,1.00
2019-01-30T08:14:07.561Z,1.20
2019-01-30T08:16:37.240Z,1.20
2019-01-30T08:19:07.954Z,1.30
2019-01-30T08:21:37.774Z,1.40
2019-01-30T08:24:07.498Z,1.50
2019-01-30T08:26:37.349Z,1.60
2019-01-30T08:29:07.228Z,1.70
2019-01-30T08:31:37.423Z,1.90
2019-01-30T08:34:07.849Z,2.10
2019-01-30T08:36:37.523Z,2.10
2019-01-30T08:39:07.940Z,2.20
2019-01-30T08:41:37.600Z,2.30
2019-01-30T08:44:07.603Z,2.40
2019-01-30T08:46:37.201Z,2.30
2019-01-30T08:49:06.867Z,2.40
2019-01-30T08:51:36.635Z,2.50
2019-01-30T08:54:06.579Z,2.60
2019-01-30T08:56:38.894Z,2.70
2019-01-30T08:59:07.717Z,2.70
2019-01-30T09:01:37.396Z,2.80
2019-01-30T09:04:07.217Z,2.90
2019-01-30T09:06:37.950Z,2.90
2019-01-30T09:09:09.058Z,3.00
2019-01-30T09:11:39.677Z,3.10
2019-01-30T09:14:09.334Z,3.10
2019-01-30T09:16:39.183Z,3.20
2019-01-30T09:19:09.670Z,3.20
2019-01-30T09:21:39.408Z,3.20
2019-01-30T09:24:09.076Z,3.30
2019-01-30T09:26:38.897Z,3.40
2019-01-30T09:29:08.651Z,3.40
2019-01-30T09:31:38.570Z,3.50
2019-01-30T09:34:08.540Z,3.50
2019-01-30T09:36:38.273Z,3.50
2019-01-30T09:39:09.230Z,3.60
2019-01-30T09:41:39.025Z,3.60
2019-01-30T09:44:09.611Z,3.70
2019-01-30T09:46:40.471Z,3.80
2019-01-30T09:49:10.175Z,3.90
2019-01-30T09:51:39.976Z,4.00
2019-01-30T09:54:10.591Z,4.10
2019-01-30T09:56:40.330Z,4.10
2019-01-30T09:59:10.324Z,4.20
2019-01-30T10:01:40.054Z,4.20
2019-01-30T10:04:09.824Z,4.20
2019-01-30T10:06:39.509Z,4.20
2019-01-30T10:09:09.362Z,4.30
2019-01-30T10:11:39.139Z,4.30
2019-01-30T10:14:09.885Z,4.30
2019-01-30T10:16:39.554Z,4.50
2019-01-30T10:19:09.255Z,4.60
2019-01-30T10:21:39.231Z,4.70
2019-01-30T10:24:09.032Z,4.80
2019-01-30T10:26:38.787Z,4.80
2019-01-30T10:29:08.589Z,4.80
2019-01-30T10:31:38.314Z,4.80
2019-01-30T10:34:07.975Z,4.80
2019-01-30T10:36:37.648Z,4.70
2019-01-30T10:39:08.967Z,4.70
2019-01-30T10:41:39.610Z,4.60
2019-01-30T10:44:09.464Z,4.50
2019-01-30T10:46:39.652Z,4.60
2019-01-30T10:49:09.585Z,4.70
2019-01-30T10:51:39.227Z,4.70
2019-01-30T10:54:08.987Z,4.80
2019-01-30T10:56:38.609Z,4.70
2019-01-30T10:59:08.531Z,4.60
2019-01-30T11:01:38.256Z,4.60
2019-01-30T11:04:08.007Z,4.50
2019-01-30T11:06:37.784Z,4.50
2019-01-30T11:09:08.910Z,4.60
2019-01-30T11:11:38.753Z,4.60
2019-01-30T11:14:08.597Z,4.60
2019-01-30T11:16:38.320Z,4.70
2019-01-30T11:19:08.174Z,4.60
2019-01-30T11:21:38.300Z,4.60
2019-01-30T11:24:08.119Z,4.60
2019-01-30T11:26:38.001Z,4.70
2019-01-30T11:29:07.587Z,4.70
2019-01-30T11:31:37.446Z,4.60
2019-01-30T11:34:07.968Z,4.60
2019-01-30T11:36:37.748Z,4.60
2019-01-30T11:39:07.776Z,4.60
2019-01-30T11:41:37.520Z,4.60
2019-01-30T11:44:07.201Z,4.60
2019-01-30T11:46:36.893Z,4.70
2019-01-30T11:49:06.623Z,5.00
2019-01-30T11:51:36.425Z,5.00
2019-01-30T11:54:06.325Z,4.80
2019-01-30T11:56:36.028Z,4.90
2019-01-30T11:59:05.796Z,5.00
2019-01-30T12:01:35.524Z,4.90
2019-01-30T12:04:05.278Z,4.70
2019-01-30T12:06:35.077Z,5.00
2019-01-30T12:09:06.809Z,4.70
2019-01-30T12:11:36.633Z,4.70
2019-01-30T12:14:07.286Z,4.50
2019-01-30T12:16:37.087Z,4.50
2019-01-30T12:19:06.914Z,4.30
2019-01-30T12:21:36.668Z,4.30
2019-01-30T12:24:06.439Z,4.20
2019-01-30T12:26:36.177Z,4.10
2019-01-30T12:29:05.944Z,3.90
2019-01-30T12:31:35.541Z,3.80
2019-01-30T12:34:05.688Z,3.80
2019-01-30T12:36:35.498Z,3.90
2019-01-30T12:39:09.078Z,4.00
2019-01-30T12:41:38.981Z,4.00
2019-01-30T12:44:08.865Z,4.00
2019-01-30T12:46:38.701Z,4.10
2019-01-30T12:49:08.451Z,4.30
2019-01-30T12:51:39.051Z,4.40
2019-01-30T12:54:11.174Z,4.50
2019-01-30T12:56:40.923Z,4.40
2019-01-30T12:59:10.688Z,4.40
2019-01-30T13:01:40.356Z,4.50
2019-01-30T13:04:10.109Z,4.50
2019-01-30T13:06:39.965Z,4.50
2019-01-30T13:09:09.781Z,4.40
2019-01-30T13:11:39.521Z,4.30
2019-01-30T13:14:09.392Z,4.40
2019-01-30T13:16:39.022Z,4.50
2019-01-30T13:19:09.196Z,4.40
2019-01-30T13:21:38.943Z,4.20
2019-01-30T13:24:08.605Z,4.20
2019-01-30T13:26:38.381Z,4.20
2019-01-30T13:29:08.179Z,4.20
2019-01-30T13:31:38.847Z,4.10
2019-01-30T13:34:08.533Z,4.00
2019-01-30T13:36:40.141Z,3.80
2019-01-30T13:39:09.774Z,3.80
2019-01-30T13:41:39.590Z,3.70
2019-01-30T13:44:09.337Z,3.70
2019-01-30T13:46:39.029Z,3.70
2019-01-30T13:49:09.776Z,3.70
2019-01-30T13:51:39.518Z,3.60
2019-01-30T13:54:09.259Z,3.60
2019-01-30T13:56:39.210Z,3.60
2019-01-30T13:59:08.794Z,3.70
2019-01-30T14:01:38.556Z,3.60
2019-01-30T14:04:08.470Z,3.70
2019-01-30T14:06:38.265Z,3.70
2019-01-30T14:09:08.903Z,3.70
2019-01-30T14:11:38.725Z,3.70
2019-01-30T14:14:08.397Z,3.60
2019-01-30T14:16:38.165Z,3.50
2019-01-30T14:19:09.223Z,3.60
2019-01-30T14:21:39.535Z,3.50
2019-01-30T14:24:09.401Z,3.40
2019-01-30T14:26:39.305Z,3.30
2019-01-30T14:29:09.118Z,3.30
2019-01-30T14:31:38.899Z,3.20
2019-01-30T14:34:08.943Z,3.20
2019-01-30T14:36:39.720Z,3.10
2019-01-30T14:39:10.265Z,3.20
2019-01-30T14:41:40.086Z,3.20
2019-01-30T14:44:09.832Z,3.20
2019-01-30T14:46:39.491Z,3.20
2019-01-30T14:49:09.248Z,3.20
2019-01-30T14:51:38.925Z,3.30
2019-01-30T14:54:08.672Z,3.30
2019-01-30T14:56:38.444Z,3.30
2019-01-30T14:59:08.109Z,3.30
2019-01-30T15:01:37.788Z,3.30
2019-01-30T15:04:07.474Z,3.20
2019-01-30T15:06:37.286Z,3.10
2019-01-30T15:09:08.882Z,3.10
2019-01-30T15:11:39.650Z,3.00
2019-01-30T15:14:09.491Z,3.00
2019-01-30T15:16:39.458Z,3.00
2019-01-30T15:19:09.309Z,2.90
2019-01-30T15:21:39.199Z,2.90
2019-01-30T15:24:09.102Z,2.90
2019-01-30T15:26:38.877Z,2.80
2019-01-30T15:29:08.630Z,2.90
2019-01-30T15:31:38.613Z,2.90
2019-01-30T15:34:09.297Z,2.90
2019-01-30T15:36:39.050Z,2.80
2019-01-30T15:39:09.202Z,2.70
2019-01-30T15:41:39.050Z,2.70
2019-01-30T15:44:08.834Z,2.60
2019-01-30T15:46:38.581Z,2.60
2019-01-30T15:49:08.410Z,2.60
2019-01-30T15:51:38.603Z,2.40
2019-01-30T15:54:09.289Z,2.50
2019-01-30T15:56:39.014Z,2.50
2019-01-30T15:59:09.878Z,2.40
2019-01-30T16:01:39.635Z,2.30
2019-01-30T16:04:10.429Z,2.30
2019-01-30T16:06:40.413Z,2.30
2019-01-30T16:09:10.177Z,2.20
2019-01-30T16:11:39.834Z,2.20
2019-01-30T16:14:10.963Z,2.10
2019-01-30T16:16:40.678Z,2.10
2019-01-30T16:19:10.394Z,2.00
2019-01-30T16:21:40.085Z,2.00
2019-01-30T16:24:09.885Z,1.90
2019-01-30T16:26:39.502Z,1.90
2019-01-30T16:29:09.246Z,1.80
2019-01-30T16:31:39.960Z,1.80
2019-01-30T16:34:09.730Z,1.70
2019-01-30T16:36:40.346Z,1.70
2019-01-30T16:39:10.190Z,1.70
2019-01-30T16:41:39.855Z,1.70
2019-01-30T16:44:09.619Z,1.60
2019-01-30T16:46:40.334Z,1.40
2019-01-30T16:49:10.054Z,1.50
2019-01-30T16:51:40.658Z,1.40
2019-01-30T16:54:10.322Z,1.40
2019-01-30T16:56:41.024Z,1.50
2019-01-30T16:59:10.766Z,1.40
2019-01-30T17:01:41.431Z,1.30
2019-01-30T17:04:11.083Z,1.30
2019-01-30T17:06:43.718Z,1.20
2019-01-30T17:09:12.650Z,1.20
2019-01-30T17:11:42.437Z,1.20
2019-01-30T17:14:12.947Z,1.30
2019-01-30T17:16:44.599Z,1.40
2019-01-30T17:19:14.382Z,1.40
2019-01-30T17:21:44.740Z,1.40
2019-01-30T17:24:14.330Z,1.40
2019-01-30T17:26:45.244Z,1.40
2019-01-30T17:29:15.146Z,1.40
2019-01-30T17:31:44.882Z,1.30
2019-01-30T17:34:14.762Z,1.30
2019-01-30T17:36:45.002Z,1.20
2019-01-30T17:39:14.888Z,1.00
2019-01-30T17:41:45.445Z,0.90
2019-01-30T17:44:15.227Z,0.90
2019-01-30T17:46:45.029Z,0.80
2019-01-30T17:49:14.840Z,0.80
2019-01-30T17:51:44.602Z,0.70
2019-01-30T17:54:18.132Z,0.70
2019-01-30T17:56:46.823Z,0.70
2019-01-30T17:59:16.499Z,0.60
2019-01-30T18:01:46.182Z,0.50
2019-01-30T18:04:15.849Z,0.50
2019-01-30T18:06:45.623Z,0.50
2019-01-30T18:09:15.419Z,0.40
2019-01-30T18:11:46.132Z,0.40
2019-01-30T18:14:15.794Z,0.30
2019-01-30T18:16:45.439Z,0.30
2019-01-30T18:19:15.163Z,0.40
2019-01-30T18:21:44.963Z,0.30
2019-01-30T18:24:15.601Z,0.20
2019-01-30T18:26:46.175Z,0.20
2019-01-30T18:29:15.943Z,0.20
2019-01-30T18:31:45.712Z,0.20
2019-01-30T18:34:15.444Z,0.10
2019-01-30T18:36:45.121Z,0.00
2019-01-30T18:39:14.868Z,-0.10
2019-01-30T18:41:45.183Z,-0.20
2019-01-30T18:44:14.859Z,-0.30
2019-01-30T18:46:44.662Z,-0.40
2019-01-30T18:49:14.307Z,-0.40
2019-01-30T18:51:44.114Z,-0.50
2019-01-30T18:54:13.924Z,-0.60
2019-01-30T18:56:43.680Z,-0.70
2019-01-30T18:59:13.550Z,-0.80
2019-01-30T19:01:43.981Z,-0.90
2019-01-30T19:04:13.727Z,-1.00
2019-01-30T19:06:51.983Z,-1.10
2019-01-30T19:09:15.105Z,-1.20
2019-01-30T19:11:44.875Z,-1.20
2019-01-30T19:14:14.794Z,-1.20
2019-01-30T19:16:44.541Z,-1.30
2019-01-30T19:19:14.148Z,-1.30
2019-01-30T19:21:44.289Z,-1.40
2019-01-30T19:24:16.059Z,-1.40
2019-01-30T19:26:45.919Z,-1.50
2019-01-30T19:29:15.887Z,-1.50
2019-01-30T19:31:45.564Z,-1.50
2019-01-30T19:34:15.320Z,-1.50
2019-01-30T19:36:44.996Z,-1.50
2019-01-30T19:39:14.711Z,-1.60
2019-01-30T19:41:44.384Z,-1.60
2019-01-30T19:44:14.189Z,-1.60
2019-01-30T19:46:43.954Z,-1.70
2019-01-30T19:49:13.798Z,-1.60
2019-01-30T19:51:43.388Z,-1.60
2019-01-30T19:54:13.234Z,-1.60
2019-01-30T19:56:43.728Z,-1.50
2019-01-30T19:59:17.703Z,-1.50
2019-01-30T20:01:46.022Z,-1.50
2019-01-30T20:04:16.777Z,-1.50
2019-01-30T20:06:48.259Z,-1.50
2019-01-30T20:09:19.987Z,-1.60
2019-01-30T20:11:49.821Z,-1.60
2019-01-30T20:14:19.584Z,-1.60
2019-01-30T20:16:49.635Z,-1.60
2019-01-30T20:19:19.330Z,-1.70
2019-01-30T20:21:49.384Z,-1.70
2019-01-30T20:24:19.193Z,-1.70
2019-01-30T20:26:48.940Z,-1.70
2019-01-30T20:29:18.766Z,-1.70
2019-01-30T20:31:48.526Z,-1.70
2019-01-30T20:34:18.140Z,-1.80
2019-01-30T20:36:47.845Z,-1.80
2019-01-30T20:39:17.720Z,-1.80
2019-01-30T20:41:47.399Z,-1.80
2019-01-30T20:44:17.018Z,-1.80
2019-01-30T20:46:47.935Z,-1.80
2019-01-30T20:49:18.657Z,-1.80
2019-01-30T20:51:48.432Z,-1.80
2019-01-30T20:54:18.220Z,-1.80
2019-01-30T20:56:48.023Z,-1.80
2019-01-30T20:59:17.639Z,-1.80
2019-01-30T21:01:47.426Z,-1.90
2019-01-30T21:04:17.203Z,-1.90
2019-01-30T21:06:47.105Z,-1.90
2019-01-30T21:09:17.861Z,-1.90
2019-01-30T21:11:48.618Z,-2.00
2019-01-30T21:14:18.380Z,-2.00
2019-01-30T21:16:49.005Z,-2.00
2019-01-30T21:19:18.797Z,-2.00
2019-01-30T21:21:48.694Z,-1.90
2019-01-30T21:24:18.527Z,-1.80
2019-01-30T21:26:48.281Z,-1.80
2019-01-30T21:29:18.006Z,-1.90
2019-01-30T21:31:47.822Z,-1.90
2019-01-30T21:34:17.594Z,-1.90
2019-01-30T21:36:48.172Z,-1.90
2019-01-30T21:39:17.955Z,-2.00
2019-01-30T21:41:47.731Z,-2.00
2019-01-30T21:44:18.395Z,-2.00
2019-01-30T21:46:48.052Z,-2.10
2019-01-30T21:49:17.654Z,-2.10
2019-01-30T21:51:47.430Z,-2.10
2019-01-30T21:54:17.269Z,-2.10
2019-01-30T21:56:47.877Z,-2.10
2019-01-30T21:59:17.638Z,-2.10
2019-01-30T22:01:48.419Z,-2.20
2019-01-30T22:04:18.171Z,-2.20
2019-01-30T22:06:48.912Z,-2.20
2019-01-30T22:09:18.788Z,-2.20
2019-01-30T22:11:48.619Z,-2.20
2019-01-30T22:14:18.529Z,-2.20
2019-01-30T22:16:48.969Z,-2.30
2019-01-30T22:19:18.671Z,-2.30
2019-01-30T22:21:48.561Z,-2.30
2019-01-30T22:24:18.394Z,-2.30
2019-01-30T22:26:49.118Z,-2.40
2019-01-30T22:29:18.818Z,-2.40
2019-01-30T22:31:49.505Z,-2.40
2019-01-30T22:34:19.307Z,-2.40
2019-01-30T22:36:49.158Z,-2.40
2019-01-30T22:39:20.935Z,-2.40
2019-01-30T22:41:50.823Z,-2.30
2019-01-30T22:44:20.677Z,-2.30
2019-01-30T22:46:50.367Z,-2.40
2019-01-30T22:49:21.049Z,-2.40
2019-01-30T22:51:51.816Z,-2.40
2019-01-30T22:54:21.514Z,-2.40
2019-01-30T22:56:51.266Z,-2.40
2019-01-30T22:59:21.927Z,-2.50
2019-01-30T23:01:51.930Z,-2.60
2019-01-30T23:04:33.329Z,-2.60
2019-01-30T23:07:08.698Z,-2.60
2019-01-30T23:09:44.013Z,-2.50
2019-01-30T23:12:39.186Z,-2.50
2019-01-30T23:15:28.317Z,-2.50
2019-01-30T23:18:12.611Z,-2.60
2019-01-30T23:20:48.038Z,-2.60
2019-01-30T23:23:20.786Z,-2.60
2019-01-30T23:26:02.267Z,-2.70
2019-01-30T23:29:07.938Z,-2.60
2019-01-30T23:31:49.496Z,-2.60
2019-01-30T23:34:31.021Z,-2.60
2019-01-30T23:37:12.412Z,-2.50
2019-01-30T23:40:00.092Z,-2.50
2019-01-30T23:42:35.623Z,-2.40
2019-01-30T23:45:14.270Z,-2.40
2019-01-30T23:48:09.224Z,-2.30
2019-01-30T23:50:47.728Z,-2.20
2019-01-30T23:53:29.002Z,-2.20
2019-01-30T23:56:07.224Z,-2.10
2019-01-30T23:58:51.619Z,-2.00
